sensor_id;sensor_type;location;lat;lon;timestamp;P1;durP1;ratioP1;P2;durP2;ratioP2
34060;SDS011;20336;-33.424;-70.638;2023-04-01T00:01:03;7.43;;;2.05;;
34060;SDS011;20336;-33.424;-70.638;2023-04-01T00:03:31;6.80;;;2.20;;
34060;SDS011;20336;-33.424;-70.638;2023-04-01T00:05:58;5.88;;;2.30;;
34060;SDS011;20336;-33.424;-70.638;2023-04-01T00:08:26;15.77;;;2.60;;
34060;SDS011;20336;-33.424;-70.638;2023-04-01T00:10:53;9.82;;;2.30;;
34060;SDS011;20336;-33.424;-70.638;2023-04-01T00:13:22;12.35;;;2.72;;
34060;SDS011;20336;-33.424;-70.638;2023-04-01T00:15:50;11.73;;;3.38;;
34060;SDS011;20336;-33.424;-70.638;2023-04-01T00:18:17;10.57;;;2.80;;
34060;SDS011;20336;-33.424;-70.638;2023-04-01T00:20:45;12.20;;;2.40;;
34060;SDS011;20336;-33.424;-70.638;2023-04-01T00:23:13;9.07;;;2.33;;
34060;SDS011;20336;-33.424;-70.638;2023-04-01T00:25:40;13.70;;;2.78;;
34060;SDS011;20336;-33.424;-70.638;2023-04-01T00:28:07;11.00;;;3.33;;
34060;SDS011;20336;-33.424;-70.638;2023-04-01T00:30:35;8.35;;;2.58;;
34060;SDS011;20336;-33.424;-70.638;2023-04-01T00:33:02;16.45;;;3.25;;
34060;SDS011;20336;-33.424;-70.638;2023-04-01T00:35:29;5.65;;;2.22;;
34060;SDS011;20336;-33.424;-70.638;2023-04-01T00:37:57;10.18;;;2.53;;
34060;SDS011;20336;-33.424;-70.638;2023-04-01T00:40:26;10.25;;;2.70;;
34060;SDS011;20336;-33.424;-70.638;2023-04-01T00:42:53;10.75;;;2.97;;
34060;SDS011;20336;-33.424;-70.638;2023-04-01T00:45:23;6.40;;;2.60;;
34060;SDS011;20336;-33.424;-70.638;2023-04-01T00:47:51;6.10;;;2.13;;
34060;SDS011;20336;-33.424;-70.638;2023-04-01T00:50:19;8.57;;;2.53;;
34060;SDS011;20336;-33.424;-70.638;2023-04-01T00:52:46;9.70;;;2.72;;
34060;SDS011;20336;-33.424;-70.638;2023-04-01T00:55:12;7.50;;;2.35;;
34060;SDS011;20336;-33.424;-70.638;2023-04-01T00:57:41;10.30;;;2.55;;
34060;SDS011;20336;-33.424;-70.638;2023-04-01T01:00:10;8.90;;;2.72;;
34060;SDS011;20336;-33.424;-70.638;2023-04-01T01:02:40;14.63;;;2.55;;
34060;SDS011;20336;-33.424;-70.638;2023-04-01T01:05:07;9.63;;;2.53;;
34060;SDS011;20336;-33.424;-70.638;2023-04-01T01:10:15;8.15;;;1.88;;
34060;SDS011;20336;-33.424;-70.638;2023-04-01T01:12:49;10.45;;;2.30;;
34060;SDS011;20336;-33.424;-70.638;2023-04-01T01:15:28;7.43;;;2.00;;
34060;SDS011;20336;-33.424;-70.638;2023-04-01T01:28:44;9.07;;;2.45;;
34060;SDS011;20336;-33.424;-70.638;2023-04-01T01:36:37;9.80;;;2.35;;
34060;SDS011;20336;-33.424;-70.638;2023-04-01T01:39:07;7.90;;;2.05;;
34060;SDS011;20336;-33.424;-70.638;2023-04-01T01:41:35;7.28;;;2.20;;
34060;SDS011;20336;-33.424;-70.638;2023-04-01T01:44:04;7.13;;;2.25;;
34060;SDS011;20336;-33.424;-70.638;2023-04-01T01:46:33;9.52;;;2.15;;
34060;SDS011;20336;-33.424;-70.638;2023-04-01T01:49:00;12.25;;;2.40;;
34060;SDS011;20336;-33.424;-70.638;2023-04-01T01:51:28;6.30;;;2.25;;
34060;SDS011;20336;-33.424;-70.638;2023-04-01T01:53:55;9.27;;;2.30;;
34060;SDS011;20336;-33.424;-70.638;2023-04-01T01:56:22;10.25;;;2.40;;
34060;SDS011;20336;-33.424;-70.638;2023-04-01T01:59:00;7.45;;;2.20;;
34060;SDS011;20336;-33.424;-70.638;2023-04-01T02:01:29;5.55;;;2.42;;
34060;SDS011;20336;-33.424;-70.638;2023-04-01T02:03:58;6.32;;;2.15;;
34060;SDS011;20336;-33.424;-70.638;2023-04-01T02:06:27;8.70;;;2.53;;
34060;SDS011;20336;-33.424;-70.638;2023-04-01T02:12:07;7.60;;;2.53;;
34060;SDS011;20336;-33.424;-70.638;2023-04-01T02:14:57;11.27;;;2.33;;
34060;SDS011;20336;-33.424;-70.638;2023-04-01T02:17:06;6.05;;;2.22;;
34060;SDS011;20336;-33.424;-70.638;2023-04-01T02:19:38;5.65;;;1.90;;
34060;SDS011;20336;-33.424;-70.638;2023-04-01T02:22:07;5.70;;;2.13;;
34060;SDS011;20336;-33.424;-70.638;2023-04-01T02:24:35;7.00;;;2.15;;
34060;SDS011;20336;-33.424;-70.638;2023-04-01T02:27:03;6.55;;;2.05;;
34060;SDS011;20336;-33.424;-70.638;2023-04-01T02:29:31;4.40;;;1.80;;
34060;SDS011;20336;-33.424;-70.638;2023-04-01T02:31:58;5.18;;;1.75;;
34060;SDS011;20336;-33.424;-70.638;2023-04-01T02:34:25;5.00;;;1.80;;
34060;SDS011;20336;-33.424;-70.638;2023-04-01T02:36:52;3.72;;;1.73;;
34060;SDS011;20336;-33.424;-70.638;2023-04-01T02:39:20;7.05;;;2.10;;
34060;SDS011;20336;-33.424;-70.638;2023-04-01T02:41:48;7.38;;;1.75;;
34060;SDS011;20336;-33.424;-70.638;2023-04-01T02:44:15;6.82;;;1.98;;
34060;SDS011;20336;-33.424;-70.638;2023-04-01T02:46:42;11.02;;;1.85;;
34060;SDS011;20336;-33.424;-70.638;2023-04-01T02:49:09;6.97;;;1.70;;
34060;SDS011;20336;-33.424;-70.638;2023-04-01T02:51:36;5.07;;;1.38;;
34060;SDS011;20336;-33.424;-70.638;2023-04-01T02:54:03;8.43;;;1.98;;
34060;SDS011;20336;-33.424;-70.638;2023-04-01T02:56:30;6.53;;;2.10;;
34060;SDS011;20336;-33.424;-70.638;2023-04-01T02:58:57;10.52;;;2.00;;
34060;SDS011;20336;-33.424;-70.638;2023-04-01T03:01:24;3.95;;;1.60;;
34060;SDS011;20336;-33.424;-70.638;2023-04-01T03:03:51;3.05;;;1.90;;
34060;SDS011;20336;-33.424;-70.638;2023-04-01T03:06:18;10.95;;;2.75;;
34060;SDS011;20336;-33.424;-70.638;2023-04-01T03:08:47;6.97;;;1.80;;
34060;SDS011;20336;-33.424;-70.638;2023-04-01T03:11:14;6.25;;;2.22;;
34060;SDS011;20336;-33.424;-70.638;2023-04-01T03:13:40;8.63;;;2.08;;
34060;SDS011;20336;-33.424;-70.638;2023-04-01T03:16:07;6.60;;;2.33;;
34060;SDS011;20336;-33.424;-70.638;2023-04-01T03:18:34;8.82;;;1.83;;
34060;SDS011;20336;-33.424;-70.638;2023-04-01T03:21:17;7.00;;;2.33;;
34060;SDS011;20336;-33.424;-70.638;2023-04-01T03:23:45;8.30;;;2.15;;
34060;SDS011;20336;-33.424;-70.638;2023-04-01T03:26:12;6.25;;;2.25;;
34060;SDS011;20336;-33.424;-70.638;2023-04-01T03:28:39;6.07;;;2.05;;
34060;SDS011;20336;-33.424;-70.638;2023-04-01T03:31:06;8.70;;;1.90;;
34060;SDS011;20336;-33.424;-70.638;2023-04-01T03:33:33;5.03;;;2.10;;
34060;SDS011;20336;-33.424;-70.638;2023-04-01T03:36:00;5.57;;;1.80;;
34060;SDS011;20336;-33.424;-70.638;2023-04-01T03:38:26;4.72;;;2.03;;
34060;SDS011;20336;-33.424;-70.638;2023-04-01T03:40:53;6.35;;;2.00;;
34060;SDS011;20336;-33.424;-70.638;2023-04-01T03:43:20;9.88;;;2.28;;
34060;SDS011;20336;-33.424;-70.638;2023-04-01T03:45:48;6.47;;;1.90;;
34060;SDS011;20336;-33.424;-70.638;2023-04-01T03:48:16;4.20;;;2.22;;
34060;SDS011;20336;-33.424;-70.638;2023-04-01T03:50:43;9.10;;;2.20;;
34060;SDS011;20336;-33.424;-70.638;2023-04-01T03:53:10;5.65;;;2.10;;
34060;SDS011;20336;-33.424;-70.638;2023-04-01T03:55:38;11.05;;;2.83;;
34060;SDS011;20336;-33.424;-70.638;2023-04-01T03:58:05;9.82;;;2.30;;
34060;SDS011;20336;-33.424;-70.638;2023-04-01T04:00:32;7.60;;;1.98;;
34060;SDS011;20336;-33.424;-70.638;2023-04-01T04:02:59;7.95;;;2.20;;
34060;SDS011;20336;-33.424;-70.638;2023-04-01T04:05:26;9.20;;;2.00;;
34060;SDS011;20336;-33.424;-70.638;2023-04-01T04:07:53;6.38;;;2.15;;
34060;SDS011;20336;-33.424;-70.638;2023-04-01T04:10:20;8.18;;;2.33;;
34060;SDS011;20336;-33.424;-70.638;2023-04-01T04:12:48;7.05;;;2.00;;
34060;SDS011;20336;-33.424;-70.638;2023-04-01T04:15:16;9.52;;;2.38;;
34060;SDS011;20336;-33.424;-70.638;2023-04-01T04:17:45;6.55;;;2.05;;
34060;SDS011;20336;-33.424;-70.638;2023-04-01T04:20:12;6.93;;;2.22;;
34060;SDS011;20336;-33.424;-70.638;2023-04-01T04:22:39;7.47;;;2.05;;
34060;SDS011;20336;-33.424;-70.638;2023-04-01T04:25:06;5.65;;;2.35;;
34060;SDS011;20336;-33.424;-70.638;2023-04-01T04:27:34;7.65;;;2.40;;
34060;SDS011;20336;-33.424;-70.638;2023-04-01T04:30:01;7.40;;;2.70;;
34060;SDS011;20336;-33.424;-70.638;2023-04-01T04:32:27;6.43;;;2.10;;
34060;SDS011;20336;-33.424;-70.638;2023-04-01T04:34:54;9.43;;;2.22;;
34060;SDS011;20336;-33.424;-70.638;2023-04-01T04:37:21;3.75;;;2.40;;
34060;SDS011;20336;-33.424;-70.638;2023-04-01T04:39:48;4.57;;;2.10;;
34060;SDS011;20336;-33.424;-70.638;2023-04-01T04:42:15;9.27;;;2.20;;
34060;SDS011;20336;-33.424;-70.638;2023-04-01T04:44:42;11.00;;;2.08;;
34060;SDS011;20336;-33.424;-70.638;2023-04-01T04:47:09;10.68;;;2.30;;
34060;SDS011;20336;-33.424;-70.638;2023-04-01T04:49:36;8.57;;;2.20;;
34060;SDS011;20336;-33.424;-70.638;2023-04-01T04:52:02;7.07;;;2.10;;
34060;SDS011;20336;-33.424;-70.638;2023-04-01T04:54:29;7.07;;;2.30;;
34060;SDS011;20336;-33.424;-70.638;2023-04-01T04:56:56;3.65;;;1.80;;
34060;SDS011;20336;-33.424;-70.638;2023-04-01T04:59:23;6.88;;;1.70;;
34060;SDS011;20336;-33.424;-70.638;2023-04-01T05:01:50;4.82;;;1.90;;
34060;SDS011;20336;-33.424;-70.638;2023-04-01T05:04:17;11.25;;;2.00;;
34060;SDS011;20336;-33.424;-70.638;2023-04-01T05:06:44;7.38;;;1.90;;
34060;SDS011;20336;-33.424;-70.638;2023-04-01T05:09:11;10.38;;;2.40;;
34060;SDS011;20336;-33.424;-70.638;2023-04-01T05:11:38;6.65;;;2.17;;
34060;SDS011;20336;-33.424;-70.638;2023-04-01T05:14:05;9.32;;;2.70;;
34060;SDS011;20336;-33.424;-70.638;2023-04-01T05:16:32;9.45;;;3.58;;
34060;SDS011;20336;-33.424;-70.638;2023-04-01T05:18:59;9.35;;;3.15;;
34060;SDS011;20336;-33.424;-70.638;2023-04-01T05:21:26;6.72;;;3.08;;
34060;SDS011;20336;-33.424;-70.638;2023-04-01T05:23:53;7.70;;;3.20;;
34060;SDS011;20336;-33.424;-70.638;2023-04-01T05:26:20;9.90;;;3.10;;
34060;SDS011;20336;-33.424;-70.638;2023-04-01T05:28:47;9.43;;;3.13;;
34060;SDS011;20336;-33.424;-70.638;2023-04-01T05:31:15;9.00;;;3.47;;
34060;SDS011;20336;-33.424;-70.638;2023-04-01T05:33:42;12.98;;;3.30;;
34060;SDS011;20336;-33.424;-70.638;2023-04-01T05:36:10;7.50;;;2.92;;
34060;SDS011;20336;-33.424;-70.638;2023-04-01T05:38:37;10.07;;;2.83;;
34060;SDS011;20336;-33.424;-70.638;2023-04-01T05:41:04;12.45;;;3.60;;
34060;SDS011;20336;-33.424;-70.638;2023-04-01T05:43:30;13.18;;;3.22;;
34060;SDS011;20336;-33.424;-70.638;2023-04-01T05:45:57;9.63;;;3.17;;
34060;SDS011;20336;-33.424;-70.638;2023-04-01T05:48:24;8.35;;;2.97;;
34060;SDS011;20336;-33.424;-70.638;2023-04-01T05:50:51;9.07;;;2.85;;
34060;SDS011;20336;-33.424;-70.638;2023-04-01T05:53:18;8.13;;;2.88;;
34060;SDS011;20336;-33.424;-70.638;2023-04-01T05:55:45;14.90;;;3.05;;
34060;SDS011;20336;-33.424;-70.638;2023-04-01T05:58:12;10.68;;;3.38;;
34060;SDS011;20336;-33.424;-70.638;2023-04-01T06:00:39;13.43;;;3.28;;
34060;SDS011;20336;-33.424;-70.638;2023-04-01T06:03:05;7.63;;;2.63;;
34060;SDS011;20336;-33.424;-70.638;2023-04-01T06:05:38;12.07;;;3.50;;
34060;SDS011;20336;-33.424;-70.638;2023-04-01T06:08:08;10.20;;;3.05;;
34060;SDS011;20336;-33.424;-70.638;2023-04-01T06:10:45;8.98;;;3.35;;
34060;SDS011;20336;-33.424;-70.638;2023-04-01T06:13:38;6.03;;;3.38;;
34060;SDS011;20336;-33.424;-70.638;2023-04-01T06:21:25;8.05;;;3.00;;
34060;SDS011;20336;-33.424;-70.638;2023-04-01T06:32:03;4.32;;;2.42;;
34060;SDS011;20336;-33.424;-70.638;2023-04-01T06:34:56;7.93;;;2.63;;
34060;SDS011;20336;-33.424;-70.638;2023-04-01T06:37:31;4.90;;;2.60;;
34060;SDS011;20336;-33.424;-70.638;2023-04-01T06:56:05;7.40;;;2.03;;
34060;SDS011;20336;-33.424;-70.638;2023-04-01T06:58:34;3.70;;;1.85;;
34060;SDS011;20336;-33.424;-70.638;2023-04-01T07:01:03;9.25;;;2.20;;
34060;SDS011;20336;-33.424;-70.638;2023-04-01T07:03:53;4.63;;;1.90;;
34060;SDS011;20336;-33.424;-70.638;2023-04-01T07:09:12;9.38;;;2.25;;
34060;SDS011;20336;-33.424;-70.638;2023-04-01T07:11:40;11.95;;;2.22;;
34060;SDS011;20336;-33.424;-70.638;2023-04-01T07:16:43;6.38;;;2.00;;
34060;SDS011;20336;-33.424;-70.638;2023-04-01T07:21:59;8.45;;;2.13;;
34060;SDS011;20336;-33.424;-70.638;2023-04-01T07:24:29;7.78;;;1.77;;
34060;SDS011;20336;-33.424;-70.638;2023-04-01T07:26:58;6.90;;;2.17;;
34060;SDS011;20336;-33.424;-70.638;2023-04-01T07:29:26;6.78;;;2.08;;
34060;SDS011;20336;-33.424;-70.638;2023-04-01T07:34:31;8.25;;;2.50;;
34060;SDS011;20336;-33.424;-70.638;2023-04-01T07:37:14;6.15;;;2.50;;
34060;SDS011;20336;-33.424;-70.638;2023-04-01T07:40:01;8.38;;;2.78;;
34060;SDS011;20336;-33.424;-70.638;2023-04-01T07:47:52;6.63;;;2.33;;
34060;SDS011;20336;-33.424;-70.638;2023-04-01T07:50:27;5.53;;;2.00;;
34060;SDS011;20336;-33.424;-70.638;2023-04-01T07:52:59;8.85;;;2.22;;
34060;SDS011;20336;-33.424;-70.638;2023-04-01T08:00:42;4.80;;;1.98;;
34060;SDS011;20336;-33.424;-70.638;2023-04-01T08:03:27;6.30;;;2.13;;
34060;SDS011;20336;-33.424;-70.638;2023-04-01T08:05:58;4.70;;;2.22;;
34060;SDS011;20336;-33.424;-70.638;2023-04-01T08:13:35;2.85;;;1.90;;
34060;SDS011;20336;-33.424;-70.638;2023-04-01T08:16:23;3.53;;;2.13;;
34060;SDS011;20336;-33.424;-70.638;2023-04-01T08:18:56;10.13;;;2.17;;
34060;SDS011;20336;-33.424;-70.638;2023-04-01T08:21:43;7.20;;;1.92;;
34060;SDS011;20336;-33.424;-70.638;2023-04-01T08:24:24;7.05;;;1.98;;
34060;SDS011;20336;-33.424;-70.638;2023-04-01T08:26:53;6.22;;;1.70;;
34060;SDS011;20336;-33.424;-70.638;2023-04-01T08:29:22;4.90;;;1.92;;
34060;SDS011;20336;-33.424;-70.638;2023-04-01T08:34:25;6.45;;;2.05;;
34060;SDS011;20336;-33.424;-70.638;2023-04-01T08:37:04;6.47;;;1.90;;
34060;SDS011;20336;-33.424;-70.638;2023-04-01T08:39:35;6.22;;;1.73;;
34060;SDS011;20336;-33.424;-70.638;2023-04-01T08:44:43;4.68;;;1.83;;
34060;SDS011;20336;-33.424;-70.638;2023-04-01T08:58:30;5.85;;;1.92;;
34060;SDS011;20336;-33.424;-70.638;2023-04-01T09:06:31;9.98;;;1.88;;
34060;SDS011;20336;-33.424;-70.638;2023-04-01T09:14:45;27.52;;;3.80;;
34060;SDS011;20336;-33.424;-70.638;2023-04-01T09:20:07;4.57;;;1.80;;
34060;SDS011;20336;-33.424;-70.638;2023-04-01T09:23:00;25.17;;;3.65;;
34060;SDS011;20336;-33.424;-70.638;2023-04-01T09:38:40;12.15;;;2.17;;
34060;SDS011;20336;-33.424;-70.638;2023-04-01T09:41:24;7.07;;;1.92;;
34060;SDS011;20336;-33.424;-70.638;2023-04-01T09:44:01;9.88;;;1.75;;
34060;SDS011;20336;-33.424;-70.638;2023-04-01T09:46:34;5.82;;;1.80;;
34060;SDS011;20336;-33.424;-70.638;2023-04-01T10:08:12;8.10;;;2.08;;
34060;SDS011;20336;-33.424;-70.638;2023-04-01T10:16:10;5.63;;;2.63;;
34060;SDS011;20336;-33.424;-70.638;2023-04-01T10:21:31;11.63;;;3.05;;
34060;SDS011;20336;-33.424;-70.638;2023-04-01T10:24:12;8.23;;;2.88;;
34060;SDS011;20336;-33.424;-70.638;2023-04-01T11:11:20;7.43;;;2.13;;
34060;SDS011;20336;-33.424;-70.638;2023-04-01T11:14:11;9.48;;;2.38;;
34060;SDS011;20336;-33.424;-70.638;2023-04-01T11:19:26;13.90;;;2.67;;
34060;SDS011;20336;-33.424;-70.638;2023-04-01T11:22:10;6.22;;;2.42;;
34060;SDS011;20336;-33.424;-70.638;2023-04-01T11:45:36;12.60;;;2.53;;
34060;SDS011;20336;-33.424;-70.638;2023-04-01T11:50:58;6.78;;;2.08;;
34060;SDS011;20336;-33.424;-70.638;2023-04-01T12:01:55;15.93;;;2.60;;
34060;SDS011;20336;-33.424;-70.638;2023-04-01T12:04:29;12.23;;;3.15;;
34060;SDS011;20336;-33.424;-70.638;2023-04-01T12:19:54;13.20;;;3.20;;
34060;SDS011;20336;-33.424;-70.638;2023-04-01T12:27:50;16.52;;;4.18;;
34060;SDS011;20336;-33.424;-70.638;2023-04-01T12:30:23;21.30;;;4.30;;
34060;SDS011;20336;-33.424;-70.638;2023-04-01T12:35:45;11.73;;;4.15;;
34060;SDS011;20336;-33.424;-70.638;2023-04-01T12:38:29;18.48;;;3.75;;
34060;SDS011;20336;-33.424;-70.638;2023-04-01T12:51:50;26.80;;;4.18;;
34060;SDS011;20336;-33.424;-70.638;2023-04-01T12:59:59;70.57;;;8.40;;
34060;SDS011;20336;-33.424;-70.638;2023-04-01T13:13:00;17.83;;;4.00;;
34060;SDS011;20336;-33.424;-70.638;2023-04-01T13:28:50;26.45;;;4.35;;
34060;SDS011;20336;-33.424;-70.638;2023-04-01T13:31:28;24.92;;;4.82;;
34060;SDS011;20336;-33.424;-70.638;2023-04-01T13:36:42;16.83;;;4.30;;
34060;SDS011;20336;-33.424;-70.638;2023-04-01T13:44:29;17.98;;;4.75;;
34060;SDS011;20336;-33.424;-70.638;2023-04-01T13:47:04;11.50;;;4.93;;
34060;SDS011;20336;-33.424;-70.638;2023-04-01T13:54:56;17.55;;;4.40;;
34060;SDS011;20336;-33.424;-70.638;2023-04-01T14:00:01;26.00;;;5.47;;
34060;SDS011;20336;-33.424;-70.638;2023-04-01T14:02:50;18.77;;;4.63;;
34060;SDS011;20336;-33.424;-70.638;2023-04-01T14:13:06;14.52;;;4.63;;
34060;SDS011;20336;-33.424;-70.638;2023-04-01T14:18:32;16.27;;;4.53;;
34060;SDS011;20336;-33.424;-70.638;2023-04-01T14:21:05;17.48;;;4.80;;
34060;SDS011;20336;-33.424;-70.638;2023-04-01T14:26:30;13.13;;;3.60;;
34060;SDS011;20336;-33.424;-70.638;2023-04-01T14:31:34;17.70;;;4.78;;
34060;SDS011;20336;-33.424;-70.638;2023-04-01T14:42:54;12.90;;;3.78;;
34060;SDS011;20336;-33.424;-70.638;2023-04-01T14:45:36;15.75;;;3.53;;
34060;SDS011;20336;-33.424;-70.638;2023-04-01T14:48:30;11.57;;;3.72;;
34060;SDS011;20336;-33.424;-70.638;2023-04-01T14:53:51;8.55;;;3.20;;
34060;SDS011;20336;-33.424;-70.638;2023-04-01T14:59:09;17.70;;;4.00;;
34060;SDS011;20336;-33.424;-70.638;2023-04-01T15:01:57;11.60;;;4.00;;
34060;SDS011;20336;-33.424;-70.638;2023-04-01T15:04:34;15.93;;;4.53;;
34060;SDS011;20336;-33.424;-70.638;2023-04-01T15:09:45;18.40;;;6.80;;
34060;SDS011;20336;-33.424;-70.638;2023-04-01T15:12:18;23.83;;;7.53;;
34060;SDS011;20336;-33.424;-70.638;2023-04-01T15:20:20;13.73;;;5.60;;
34060;SDS011;20336;-33.424;-70.638;2023-04-01T15:30:32;28.98;;;11.93;;
34060;SDS011;20336;-33.424;-70.638;2023-04-01T15:35:45;26.50;;;11.07;;
34060;SDS011;20336;-33.424;-70.638;2023-04-01T15:38:34;20.90;;;11.30;;
34060;SDS011;20336;-33.424;-70.638;2023-04-01T15:43:45;19.95;;;10.13;;
34060;SDS011;20336;-33.424;-70.638;2023-04-01T15:49:03;24.92;;;9.15;;
34060;SDS011;20336;-33.424;-70.638;2023-04-01T16:07:09;16.00;;;5.05;;
34060;SDS011;20336;-33.424;-70.638;2023-04-01T16:09:47;11.27;;;5.07;;
34060;SDS011;20336;-33.424;-70.638;2023-04-01T16:20:22;17.75;;;5.93;;
34060;SDS011;20336;-33.424;-70.638;2023-04-01T16:25:25;13.10;;;5.63;;
34060;SDS011;20336;-33.424;-70.638;2023-04-01T16:27:58;17.15;;;5.00;;
34060;SDS011;20336;-33.424;-70.638;2023-04-01T16:30:36;10.70;;;4.85;;
34060;SDS011;20336;-33.424;-70.638;2023-04-01T16:33:39;10.25;;;4.30;;
34060;SDS011;20336;-33.424;-70.638;2023-04-01T16:36:05;8.98;;;3.65;;
34060;SDS011;20336;-33.424;-70.638;2023-04-01T16:51:44;10.05;;;3.72;;
34060;SDS011;20336;-33.424;-70.638;2023-04-01T16:56:43;12.27;;;4.07;;
34060;SDS011;20336;-33.424;-70.638;2023-04-01T16:59:19;10.20;;;4.10;;
34060;SDS011;20336;-33.424;-70.638;2023-04-01T17:12:30;11.88;;;3.35;;
34060;SDS011;20336;-33.424;-70.638;2023-04-01T17:17:51;7.50;;;2.85;;
34060;SDS011;20336;-33.424;-70.638;2023-04-01T17:20:36;5.50;;;2.20;;
34060;SDS011;20336;-33.424;-70.638;2023-04-01T17:25:48;7.53;;;1.90;;
34060;SDS011;20336;-33.424;-70.638;2023-04-01T17:28:24;5.75;;;2.22;;
34060;SDS011;20336;-33.424;-70.638;2023-04-01T17:30:59;10.20;;;2.22;;
34060;SDS011;20336;-33.424;-70.638;2023-04-01T17:36:15;8.80;;;1.73;;
34060;SDS011;20336;-33.424;-70.638;2023-04-01T18:17:42;8.75;;;2.08;;
34060;SDS011;20336;-33.424;-70.638;2023-04-01T18:23:00;6.70;;;1.90;;
34060;SDS011;20336;-33.424;-70.638;2023-04-01T18:25:32;5.10;;;1.73;;
34060;SDS011;20336;-33.424;-70.638;2023-04-01T18:28:16;4.05;;;1.80;;
34060;SDS011;20336;-33.424;-70.638;2023-04-01T18:30:49;8.15;;;1.90;;
34060;SDS011;20336;-33.424;-70.638;2023-04-01T18:38:49;9.05;;;1.90;;
34060;SDS011;20336;-33.424;-70.638;2023-04-01T18:41:22;12.07;;;1.90;;
34060;SDS011;20336;-33.424;-70.638;2023-04-01T18:54:02;5.57;;;2.10;;
34060;SDS011;20336;-33.424;-70.638;2023-04-01T18:59:05;8.48;;;1.80;;
34060;SDS011;20336;-33.424;-70.638;2023-04-01T19:01:51;13.40;;;1.98;;
34060;SDS011;20336;-33.424;-70.638;2023-04-01T19:04:33;14.82;;;1.98;;
34060;SDS011;20336;-33.424;-70.638;2023-04-01T19:09:49;8.60;;;1.92;;
34060;SDS011;20336;-33.424;-70.638;2023-04-01T19:14:56;7.68;;;2.17;;
34060;SDS011;20336;-33.424;-70.638;2023-04-01T19:17:32;9.88;;;2.00;;
34060;SDS011;20336;-33.424;-70.638;2023-04-01T19:20:19;6.72;;;2.20;;
34060;SDS011;20336;-33.424;-70.638;2023-04-01T19:25:21;5.43;;;1.75;;
34060;SDS011;20336;-33.424;-70.638;2023-04-01T19:27:50;11.18;;;1.80;;
34060;SDS011;20336;-33.424;-70.638;2023-04-01T19:30:28;8.85;;;1.98;;
34060;SDS011;20336;-33.424;-70.638;2023-04-01T19:33:19;8.23;;;1.73;;
34060;SDS011;20336;-33.424;-70.638;2023-04-01T19:40:57;7.60;;;1.90;;
34060;SDS011;20336;-33.424;-70.638;2023-04-01T19:43:34;9.93;;;2.20;;
34060;SDS011;20336;-33.424;-70.638;2023-04-01T19:48:39;9.88;;;2.30;;
34060;SDS011;20336;-33.424;-70.638;2023-04-01T19:51:25;8.52;;;2.28;;
34060;SDS011;20336;-33.424;-70.638;2023-04-01T19:53:59;5.15;;;1.98;;
34060;SDS011;20336;-33.424;-70.638;2023-04-01T19:56:34;10.63;;;2.38;;
34060;SDS011;20336;-33.424;-70.638;2023-04-01T20:01:53;6.35;;;1.70;;
34060;SDS011;20336;-33.424;-70.638;2023-04-01T20:04:26;5.93;;;1.50;;
34060;SDS011;20336;-33.424;-70.638;2023-04-01T20:09:37;8.35;;;1.55;;
34060;SDS011;20336;-33.424;-70.638;2023-04-01T20:14:40;7.85;;;1.50;;
34060;SDS011;20336;-33.424;-70.638;2023-04-01T20:20:46;11.05;;;1.85;;
34060;SDS011;20336;-33.424;-70.638;2023-04-01T20:27:51;5.97;;;1.48;;
34060;SDS011;20336;-33.424;-70.638;2023-04-01T20:35:37;6.40;;;1.67;;
34060;SDS011;20336;-33.424;-70.638;2023-04-01T20:38:22;6.07;;;1.83;;
34060;SDS011;20336;-33.424;-70.638;2023-04-01T20:40:52;10.82;;;1.77;;
34060;SDS011;20336;-33.424;-70.638;2023-04-01T20:43:48;6.22;;;1.90;;
34060;SDS011;20336;-33.424;-70.638;2023-04-01T20:51:29;5.78;;;1.80;;
34060;SDS011;20336;-33.424;-70.638;2023-04-01T20:56:30;3.90;;;1.85;;
34060;SDS011;20336;-33.424;-70.638;2023-04-01T21:12:48;10.65;;;2.10;;
34060;SDS011;20336;-33.424;-70.638;2023-04-01T21:15:21;9.43;;;2.92;;
34060;SDS011;20336;-33.424;-70.638;2023-04-01T21:18:10;13.13;;;2.40;;
34060;SDS011;20336;-33.424;-70.638;2023-04-01T21:20:59;8.05;;;2.20;;
34060;SDS011;20336;-33.424;-70.638;2023-04-01T21:34:52;10.38;;;3.63;;
34060;SDS011;20336;-33.424;-70.638;2023-04-01T21:37:41;20.60;;;4.07;;
34060;SDS011;20336;-33.424;-70.638;2023-04-01T21:42:44;9.23;;;4.70;;
34060;SDS011;20336;-33.424;-70.638;2023-04-01T22:01:15;6.40;;;3.40;;
34060;SDS011;20336;-33.424;-70.638;2023-04-01T22:11:55;13.68;;;4.35;;
34060;SDS011;20336;-33.424;-70.638;2023-04-01T22:14:38;10.27;;;4.03;;
34060;SDS011;20336;-33.424;-70.638;2023-04-01T22:19:44;10.63;;;4.05;;
34060;SDS011;20336;-33.424;-70.638;2023-04-01T22:25:00;14.10;;;5.00;;
34060;SDS011;20336;-33.424;-70.638;2023-04-01T22:27:41;14.68;;;5.03;;
34060;SDS011;20336;-33.424;-70.638;2023-04-01T22:32:47;14.73;;;5.40;;
34060;SDS011;20336;-33.424;-70.638;2023-04-01T22:42:59;16.25;;;4.65;;
34060;SDS011;20336;-33.424;-70.638;2023-04-01T22:48:18;21.38;;;4.30;;
34060;SDS011;20336;-33.424;-70.638;2023-04-01T22:51:01;16.40;;;4.15;;
34060;SDS011;20336;-33.424;-70.638;2023-04-01T22:56:19;20.52;;;4.60;;
34060;SDS011;20336;-33.424;-70.638;2023-04-01T22:58:53;14.52;;;4.13;;
34060;SDS011;20336;-33.424;-70.638;2023-04-01T23:01:24;11.32;;;3.83;;
34060;SDS011;20336;-33.424;-70.638;2023-04-01T23:03:52;13.05;;;3.50;;
34060;SDS011;20336;-33.424;-70.638;2023-04-01T23:06:27;12.52;;;3.60;;
34060;SDS011;20336;-33.424;-70.638;2023-04-01T23:09:00;10.68;;;3.47;;
34060;SDS011;20336;-33.424;-70.638;2023-04-01T23:11:33;11.25;;;3.63;;
34060;SDS011;20336;-33.424;-70.638;2023-04-01T23:14:15;13.15;;;3.85;;
34060;SDS011;20336;-33.424;-70.638;2023-04-01T23:27:13;9.68;;;3.65;;
34060;SDS011;20336;-33.424;-70.638;2023-04-01T23:29:42;13.40;;;4.05;;
34060;SDS011;20336;-33.424;-70.638;2023-04-01T23:32:24;14.32;;;3.60;;
34060;SDS011;20336;-33.424;-70.638;2023-04-01T23:34:52;16.55;;;3.78;;
34060;SDS011;20336;-33.424;-70.638;2023-04-01T23:37:20;9.85;;;3.63;;
34060;SDS011;20336;-33.424;-70.638;2023-04-01T23:45:03;14.18;;;3.42;;
34060;SDS011;20336;-33.424;-70.638;2023-04-01T23:47:35;10.93;;;3.67;;
34060;SDS011;20336;-33.424;-70.638;2023-04-01T23:50:06;14.55;;;3.83;;
34060;SDS011;20336;-33.424;-70.638;2023-04-01T23:55:33;17.17;;;4.25;;
